首页
METAR-TAF:

METAR-TAF

机场 :

奧西耶克, 克罗地亚

纬度: 45-27N, 经度: 018-48E, 海拔: 88米

当前天气观测

该预报发布于38分钟前的23:00 UTC
风速10节,风向西转西北
温度 11°C
湿度 94%
气压 1016 hPa
能见度10公里或以上
散云层高于1700英尺
多云层高于3500英尺

METAR: LDOS 312300Z 29010KT 9999 SCT017 BKN035 11/10 Q1016

时间: 01:38 (23:38 UTC)

预报

该预报发布于13分钟前的23:25 UTC
预报有效从01日的 00点(UTC)到 02日的 00点(UTC)
风速8节,风向西转西北
能见度10公里或以上
散云层高于1500英尺
阴天层高于3000英尺
几率 40% :
短暂存在
从 01日的 00点(UTC)到 01日的 07点(UTC)
能見度: 4000
阴天层高于1000英尺
成为
从 01日的 05点(UTC)到 01日的 07点(UTC)
风速10节,风向
几率 30% :
短暂存在
从 01日的 15点(UTC)到 02日的 00点(UTC)
少量云层高于4000英尺, 积雨云.
散云层高于4500英尺
雷暴, 雨
成为
从 01日的 17点(UTC)到 01日的 19点(UTC)
风速6节,风向西转西北

TAF: LDOS 312325Z 0100/0200 29008KT 9999 SCT015 OVC030 TX20/0114Z TN10/0104Z PROB40 TEMPO 0100/0107 4000 RA OVC010 BECMG 0105/0107 01010KT PROB30 TEMPO 0115/0200 TSRA FEW040CB SCT045 BECMG 0117/0119 29006KT

超过4000个机场的气象观测和天气预报(METAR&TAF报告)。

可查询的气象台以黄色和红色小点在地图上表示。

将鼠标移到小点上方,可查看气象台名称。

然后点击查看天气观测和预报。

如需切换地图:点击带黑十字的绿色按钮放大地图;点击带横线的绿色按钮缩小地图;或者点击绿色箭头查看邻近地区的地图。


METAR-TAF: